Time;durP1;ratioP1;P1;durP2;ratioP2;P2;SDS_P1;SDS_P2;PMS_P1;PMS_P2;Temp;Humidity;BMP_temperature;BMP_pressure;BME280_temperature;BME280_humidity;BME280_pressure;Samples;Min_cycle;Max_cycle;Signal;HPM_P1;HPM_P2
2023/07/15 00:02:08;;;;;;;68.65;42.45;;;;;;;;;;5069965;28;20512;-62
2023/07/15 00:04:35;;;;;;;58.85;38.38;;;;;;;;;;5067333;28;20581;-63
2023/07/15 00:07:05;;;;;;;63.38;41.25;;;;;;;;;;5066982;28;20041;-62
2023/07/15 00:09:34;;;;;;;65.70;40.65;;;;;;;;;;5064178;28;20036;-63
2023/07/15 00:12:01;;;;;;;60.88;38.30;;;;;;;;;;5036893;28;20032;-63
2023/07/15 00:14:31;;;;;;;60.38;39.65;;;;;;;;;;5061669;28;20127;-62
2023/07/15 00:16:59;;;;;;;57.47;38.70;;;;;;;;;;5062113;28;20037;-65
2023/07/15 00:19:26;;;;;;;66.22;41.08;;;;;;;;;;5044406;28;20051;-61
2023/07/15 00:21:53;;;;;;;63.03;39.50;;;;;;;;;;5061954;28;20048;-62
2023/07/15 00:24:19;;;;;;;58.15;39.10;;;;;;;;;;5063048;28;20542;-62
2023/07/15 00:26:47;;;;;;;61.83;41.10;;;;;;;;;;5047926;28;20195;-61
2023/07/15 00:29:16;;;;;;;66.38;40.53;;;;;;;;;;5062764;28;20131;-62
2023/07/15 00:31:43;;;;;;;63.33;40.47;;;;;;;;;;5062211;28;21489;-64
2023/07/15 00:34:10;;;;;;;65.65;42.35;;;;;;;;;;5060701;28;20037;-62
2023/07/15 00:36:37;;;;;;;59.30;38.20;;;;;;;;;;5063636;28;20039;-62
2023/07/15 00:39:04;;;;;;;64.00;39.80;;;;;;;;;;5044105;28;20067;-63
2023/07/15 00:41:32;;;;;;;64.07;40.45;;;;;;;;;;5058970;28;20047;-62
2023/07/15 00:44:00;;;;;;;59.63;39.75;;;;;;;;;;5059602;28;20040;-61
2023/07/15 00:46:31;;;;;;;67.38;40.10;;;;;;;;;;5033830;28;20040;-61
2023/07/15 00:49:00;;;;;;;60.63;40.03;;;;;;;;;;5060113;28;20447;-62
2023/07/15 00:51:29;;;;;;;66.97;40.80;;;;;;;;;;5061824;28;20059;-62
2023/07/15 00:53:55;;;;;;;66.30;38.97;;;;;;;;;;5060999;28;20032;-64
2023/07/15 00:56:25;;;;;;;64.22;39.70;;;;;;;;;;5060659;28;20037;-63
2023/07/15 00:58:52;;;;;;;64.40;40.42;;;;;;;;;;5059046;28;20032;-62
2023/07/15 01:01:19;;;;;;;64.78;41.58;;;;;;;;;;5058991;28;20147;-61
2023/07/15 01:03:46;;;;;;;59.35;40.08;;;;;;;;;;5056569;28;20044;-61
2023/07/15 01:06:13;;;;;;;62.28;39.40;;;;;;;;;;5063377;28;20891;-64
2023/07/15 01:08:40;;;;;;;63.90;42.55;;;;;;;;;;5061904;28;20028;-64
2023/07/15 01:11:06;;;;;;;62.45;41.00;;;;;;;;;;5060747;28;20044;-62
2023/07/15 01:13:53;;;;;;;62.03;39.90;;;;;;;;;;5018437;28;20041;-64
2023/07/15 01:16:19;;;;;;;62.58;39.80;;;;;;;;;;5020233;28;20069;-62
2023/07/15 01:18:46;;;;;;;63.55;40.67;;;;;;;;;;5018495;28;20952;-62
2023/07/15 01:21:13;;;;;;;63.65;39.25;;;;;;;;;;5018531;28;20037;-63
2023/07/15 01:23:40;;;;;;;58.35;38.20;;;;;;;;;;5017422;28;20033;-62
2023/07/15 01:26:06;;;;;;;54.65;38.03;;;;;;;;;;5018924;28;20038;-61
2023/07/15 01:28:53;;;;;;;57.42;38.40;;;;;;;;;;4994033;28;20052;-60
2023/07/15 01:31:19;;;;;;;64.55;38.58;;;;;;;;;;4992086;28;20512;-62
2023/07/15 01:33:51;;;;;;;57.50;37.03;;;;;;;;;;4992023;28;20053;-63
2023/07/15 01:36:17;;;;;;;63.50;38.35;;;;;;;;;;4993073;28;20158;-60
2023/07/15 01:38:44;;;;;;;61.28;38.85;;;;;;;;;;4992280;28;20034;-63
2023/07/15 01:41:10;;;;;;;61.60;39.33;;;;;;;;;;4992787;28;20046;-62
2023/07/15 01:43:37;;;;;;;62.30;39.28;;;;;;;;;;4992141;28;20030;-61
2023/07/15 01:46:05;;;;;;;64.00;39.30;;;;;;;;;;4992148;28;20629;-66
2023/07/15 01:48:50;;;;;;;58.92;38.15;;;;;;;;;;4948016;28;20522;-61
2023/07/15 01:51:17;;;;;;;61.10;37.80;;;;;;;;;;4959759;28;20054;-65
2023/07/15 01:53:44;;;;;;;63.75;39.80;;;;;;;;;;4966973;28;20042;-63
2023/07/15 01:56:11;;;;;;;54.58;38.00;;;;;;;;;;4974687;28;20086;-63
2023/07/15 01:58:37;;;;;;;59.75;38.03;;;;;;;;;;4974906;28;20099;-64
2023/07/15 02:01:04;;;;;;;58.08;36.95;;;;;;;;;;4971968;28;20488;-63
2023/07/15 02:03:31;;;;;;;57.50;38.65;;;;;;;;;;4967475;28;20046;-64
2023/07/15 02:05:57;;;;;;;58.85;37.58;;;;;;;;;;4980833;28;20037;-64
2023/07/15 02:08:24;;;;;;;58.22;37.05;;;;;;;;;;5001940;28;20064;-63
2023/07/15 02:10:50;;;;;;;59.45;38.00;;;;;;;;;;5003474;28;20081;-63
2023/07/15 02:13:17;;;;;;;56.60;38.30;;;;;;;;;;4985943;28;20243;-63
2023/07/15 02:15:44;;;;;;;61.72;39.97;;;;;;;;;;5001939;28;20494;-65
2023/07/15 02:18:11;;;;;;;62.53;39.15;;;;;;;;;;5004824;28;20041;-64
2023/07/15 02:20:38;;;;;;;65.20;38.80;;;;;;;;;;5037648;28;20033;-65
2023/07/15 02:23:05;;;;;;;60.53;38.42;;;;;;;;;;5051427;28;20041;-63
2023/07/15 02:25:32;;;;;;;62.10;38.55;;;;;;;;;;5064112;28;20119;-63
2023/07/15 02:27:58;;;;;;;62.42;38.25;;;;;;;;;;5069203;28;20132;-63
2023/07/15 02:30:26;;;;;;;60.75;37.13;;;;;;;;;;5046554;28;20124;-62
2023/07/15 02:32:54;;;;;;;62.40;37.97;;;;;;;;;;5064523;28;20393;-64
2023/07/15 02:35:21;;;;;;;57.78;36.67;;;;;;;;;;5065061;28;20048;-65
2023/07/15 02:37:49;;;;;;;59.65;37.85;;;;;;;;;;5062687;28;20032;-64
2023/07/15 02:40:17;;;;;;;60.75;38.53;;;;;;;;;;5063449;28;21918;-63
2023/07/15 02:42:44;;;;;;;59.25;38.70;;;;;;;;;;5027375;28;20038;-62
2023/07/15 02:45:12;;;;;;;61.78;39.10;;;;;;;;;;5059784;28;20178;-64
2023/07/15 02:47:41;;;;;;;56.65;37.45;;;;;;;;;;5064486;28;20691;-65
2023/07/15 02:50:08;;;;;;;62.03;38.92;;;;;;;;;;5064778;28;20036;-64
2023/07/15 02:52:36;;;;;;;60.00;38.97;;;;;;;;;;5063464;28;20048;-62
2023/07/15 02:55:03;;;;;;;61.13;39.13;;;;;;;;;;5065633;28;20040;-62
2023/07/15 02:57:30;;;;;;;66.90;39.28;;;;;;;;;;5043855;28;20032;-64
2023/07/15 02:59:57;;;;;;;56.15;37.33;;;;;;;;;;5068796;28;20032;-64
2023/07/15 03:02:24;;;;;;;60.03;38.15;;;;;;;;;;5063615;28;20040;-65
2023/07/15 03:04:51;;;;;;;63.78;39.45;;;;;;;;;;5068614;28;20032;-63
2023/07/15 03:07:18;;;;;;;60.03;38.25;;;;;;;;;;5071349;28;20056;-64
2023/07/15 03:09:45;;;;;;;60.08;39.50;;;;;;;;;;5073126;28;20047;-63
2023/07/15 03:12:11;;;;;;;61.33;39.03;;;;;;;;;;5084240;28;20047;-65
2023/07/15 03:14:39;;;;;;;64.55;39.53;;;;;;;;;;5076705;28;20085;-65
2023/07/15 03:17:05;;;;;;;60.03;38.05;;;;;;;;;;5069797;28;20194;-66
2023/07/15 03:19:32;;;;;;;62.92;39.72;;;;;;;;;;5067841;28;20036;-65
2023/07/15 03:21:59;;;;;;;65.25;40.13;;;;;;;;;;5041309;28;20259;-64
2023/07/15 03:24:26;;;;;;;63.58;38.13;;;;;;;;;;5066727;28;20038;-64
2023/07/15 03:26:56;;;;;;;58.63;38.13;;;;;;;;;;5066901;28;20488;-63
2023/07/15 03:29:23;;;;;;;72.53;38.80;;;;;;;;;;5070831;28;20115;-63
2023/07/15 03:31:49;;;;;;;65.82;39.15;;;;;;;;;;5065342;28;20065;-64
2023/07/15 03:34:16;;;;;;;65.43;42.50;;;;;;;;;;5062436;28;20036;-63
2023/07/15 03:36:43;;;;;;;67.75;43.17;;;;;;;;;;5063399;28;20040;-63
2023/07/15 03:39:10;;;;;;;67.68;42.75;;;;;;;;;;5052718;28;20036;-62
2023/07/15 03:41:36;;;;;;;69.13;42.10;;;;;;;;;;5070193;28;21093;-64
2023/07/15 03:44:03;;;;;;;68.70;41.80;;;;;;;;;;5058304;28;20048;-64
2023/07/15 03:46:30;;;;;;;67.95;43.15;;;;;;;;;;5071291;28;20151;-67
2023/07/15 03:48:57;;;;;;;65.90;42.60;;;;;;;;;;5074925;28;20422;-65
2023/07/15 03:51:24;;;;;;;56.40;39.90;;;;;;;;;;5071204;28;20435;-70
2023/07/15 03:53:50;;;;;;;65.38;42.03;;;;;;;;;;5051737;28;20036;-65
2023/07/15 03:56:17;;;;;;;61.30;39.88;;;;;;;;;;5071915;28;20419;-62
2023/07/15 03:58:44;;;;;;;65.47;41.28;;;;;;;;;;5047650;28;20040;-63
2023/07/15 04:01:10;;;;;;;71.63;42.13;;;;;;;;;;5049543;28;20104;-66
2023/07/15 04:03:37;;;;;;;65.93;42.20;;;;;;;;;;5064096;28;20046;-63
2023/07/15 04:06:04;;;;;;;74.40;42.10;;;;;;;;;;5064817;28;20037;-64
2023/07/15 04:08:30;;;;;;;66.20;42.30;;;;;;;;;;5060345;28;20048;-66
2023/07/15 04:10:57;;;;;;;68.60;42.03;;;;;;;;;;5047154;28;20463;-62
2023/07/15 04:13:25;;;;;;;72.68;41.95;;;;;;;;;;5047419;28;20041;-62
2023/07/15 04:15:52;;;;;;;69.15;41.95;;;;;;;;;;5046611;28;20401;-64
2023/07/15 04:18:18;;;;;;;69.22;42.67;;;;;;;;;;5044790;28;20037;-64
2023/07/15 04:20:45;;;;;;;66.32;40.97;;;;;;;;;;5047410;28;20459;-62
2023/07/15 04:23:13;;;;;;;66.93;41.83;;;;;;;;;;5045988;28;20045;-63
2023/07/15 04:25:39;;;;;;;65.30;41.17;;;;;;;;;;5043738;28;20044;-63
2023/07/15 04:28:06;;;;;;;66.70;40.60;;;;;;;;;;5031612;28;20041;-63
2023/07/15 04:30:33;;;;;;;66.20;40.90;;;;;;;;;;5045037;28;20049;-63
2023/07/15 04:33:00;;;;;;;63.72;41.65;;;;;;;;;;5043868;28;20041;-64
2023/07/15 04:35:27;;;;;;;67.72;42.17;;;;;;;;;;5044083;28;20040;-62
2023/07/15 04:37:53;;;;;;;62.90;40.88;;;;;;;;;;5046186;28;20136;-62
2023/07/15 04:40:20;;;;;;;71.13;42.15;;;;;;;;;;5045329;28;20043;-63
2023/07/15 04:42:47;;;;;;;76.03;44.30;;;;;;;;;;5043295;28;20060;-63
2023/07/15 04:45:13;;;;;;;70.20;45.35;;;;;;;;;;5046398;28;20045;-62
2023/07/15 04:47:40;;;;;;;70.57;42.83;;;;;;;;;;5044413;28;20032;-64
2023/07/15 04:50:07;;;;;;;72.07;41.90;;;;;;;;;;5044804;28;20047;-60
2023/07/15 04:52:33;;;;;;;66.35;42.78;;;;;;;;;;5045093;28;20689;-61
2023/07/15 04:55:00;;;;;;;65.43;42.10;;;;;;;;;;5044729;28;20043;-63
2023/07/15 04:57:27;;;;;;;72.18;40.88;;;;;;;;;;5044970;28;20044;-63
2023/07/15 04:59:53;;;;;;;71.18;42.85;;;;;;;;;;5030502;28;20103;-63
2023/07/15 05:02:20;;;;;;;70.82;41.78;;;;;;;;;;5043521;28;20071;-62
2023/07/15 05:04:47;;;;;;;74.20;42.45;;;;;;;;;;5031603;28;20032;-62
2023/07/15 05:07:34;;;;;;;71.32;41.90;;;;;;;;;;5020324;28;20988;-62
2023/07/15 05:10:00;;;;;;;66.78;41.72;;;;;;;;;;5017957;28;20038;-62
2023/07/15 05:12:27;;;;;;;67.18;41.42;;;;;;;;;;5001850;28;20041;-63
2023/07/15 05:14:53;;;;;;;70.10;40.78;;;;;;;;;;5005910;28;20121;-63
2023/07/15 05:17:20;;;;;;;72.07;43.45;;;;;;;;;;5018565;28;20061;-62
2023/07/15 05:19:47;;;;;;;67.82;42.85;;;;;;;;;;5018954;28;20035;-62
2023/07/15 05:22:13;;;;;;;75.82;47.55;;;;;;;;;;5017701;28;20793;-60
2023/07/15 05:24:40;;;;;;;72.30;45.55;;;;;;;;;;5016526;28;20532;-63
2023/07/15 05:27:07;;;;;;;76.75;44.13;;;;;;;;;;5001112;28;20036;-63
2023/07/15 05:29:34;;;;;;;79.18;46.15;;;;;;;;;;5022866;28;20116;-63
2023/07/15 05:32:00;;;;;;;74.30;44.58;;;;;;;;;;5021205;28;20053;-62
2023/07/15 05:34:27;;;;;;;69.57;43.95;;;;;;;;;;5019736;28;20043;-63
2023/07/15 05:36:53;;;;;;;73.43;44.97;;;;;;;;;;5022960;28;20040;-63
2023/07/15 05:39:20;;;;;;;78.60;46.63;;;;;;;;;;4995496;28;20160;-62
2023/07/15 05:41:47;;;;;;;75.60;44.35;;;;;;;;;;5021386;28;20639;-61
2023/07/15 05:44:13;;;;;;;74.20;44.28;;;;;;;;;;5012944;28;20075;-62
2023/07/15 05:46:40;;;;;;;74.43;42.38;;;;;;;;;;5049598;28;20039;-62
2023/07/15 05:49:06;;;;;;;70.20;43.03;;;;;;;;;;5029772;28;20055;-62
2023/07/15 05:51:34;;;;;;;69.80;42.42;;;;;;;;;;5032309;28;20048;-64
2023/07/15 05:54:00;;;;;;;65.05;39.47;;;;;;;;;;5051781;28;20174;-60
2023/07/15 05:56:27;;;;;;;67.53;40.97;;;;;;;;;;5028291;28;20097;-61
2023/07/15 05:58:54;;;;;;;73.63;43.03;;;;;;;;;;5048543;28;20107;-62
2023/07/15 06:01:21;;;;;;;63.72;40.90;;;;;;;;;;5048204;28;20086;-64
2023/07/15 06:03:48;;;;;;;70.47;41.75;;;;;;;;;;5048649;28;20099;-63
2023/07/15 06:06:14;;;;;;;72.97;41.40;;;;;;;;;;5050662;28;20040;-62
2023/07/15 06:08:41;;;;;;;66.93;41.75;;;;;;;;;;5047505;28;20662;-63
2023/07/15 06:11:09;;;;;;;65.03;40.83;;;;;;;;;;5044684;28;20221;-63
2023/07/15 06:13:35;;;;;;;66.13;41.97;;;;;;;;;;5049932;28;20067;-62
2023/07/15 06:16:05;;;;;;;65.82;41.47;;;;;;;;;;5030655;28;20040;-63
2023/07/15 06:18:31;;;;;;;70.53;41.83;;;;;;;;;;5048821;28;20183;-63
2023/07/15 06:20:58;;;;;;;69.90;42.83;;;;;;;;;;5046078;28;20139;-62
2023/07/15 06:23:44;;;;;;;70.47;43.40;;;;;;;;;;5001468;28;20097;-62
2023/07/15 06:26:11;;;;;;;77.40;46.17;;;;;;;;;;5001926;28;20156;-62
2023/07/15 06:28:39;;;;;;;71.18;42.97;;;;;;;;;;5001108;28;20048;-62
2023/07/15 06:31:07;;;;;;;70.10;42.88;;;;;;;;;;5000467;28;20079;-61
2023/07/15 06:33:37;;;;;;;71.97;42.33;;;;;;;;;;4998949;28;20037;-63
2023/07/15 06:36:04;;;;;;;66.78;42.58;;;;;;;;;;5001529;28;20514;-63
2023/07/15 06:38:31;;;;;;;70.88;44.13;;;;;;;;;;5001218;28;20046;-62
2023/07/15 06:40:58;;;;;;;67.30;43.10;;;;;;;;;;5003566;28;20038;-64
2023/07/15 06:43:25;;;;;;;68.20;41.60;;;;;;;;;;4988570;28;20038;-62
2023/07/15 06:45:52;;;;;;;70.75;43.15;;;;;;;;;;5002671;28;20051;-61
2023/07/15 06:48:18;;;;;;;68.45;42.85;;;;;;;;;;5001211;28;20041;-62
2023/07/15 06:50:45;;;;;;;72.57;44.42;;;;;;;;;;4989762;28;20805;-63
2023/07/15 06:53:12;;;;;;;68.97;42.90;;;;;;;;;;5000927;28;20053;-61
2023/07/15 06:55:38;;;;;;;72.97;45.72;;;;;;;;;;5002131;28;20107;-62
2023/07/15 06:58:06;;;;;;;70.20;43.85;;;;;;;;;;5003530;28;20460;-60
2023/07/15 07:00:33;;;;;;;68.50;43.95;;;;;;;;;;4997765;28;20045;-61
2023/07/15 07:03:00;;;;;;;67.45;43.15;;;;;;;;;;5044304;28;20044;-60
2023/07/15 07:05:28;;;;;;;70.45;43.03;;;;;;;;;;5025492;28;20099;-64
2023/07/15 07:07:55;;;;;;;66.03;42.10;;;;;;;;;;5043554;28;20047;-62
2023/07/15 07:10:21;;;;;;;71.38;44.72;;;;;;;;;;5045720;28;20036;-63
2023/07/15 07:12:48;;;;;;;71.22;42.30;;;;;;;;;;5042244;28;20048;-67
2023/07/15 07:15:15;;;;;;;70.10;41.67;;;;;;;;;;5041899;28;20045;-62
2023/07/15 07:17:41;;;;;;;74.60;43.42;;;;;;;;;;5043113;28;20064;-61
2023/07/15 07:20:08;;;;;;;68.93;42.58;;;;;;;;;;5045903;28;20043;-61
2023/07/15 07:22:35;;;;;;;61.55;40.85;;;;;;;;;;5042157;28;20069;-62
2023/07/15 07:25:01;;;;;;;77.35;45.83;;;;;;;;;;5043012;28;20500;-61
2023/07/15 07:27:28;;;;;;;73.72;43.80;;;;;;;;;;5024982;28;20029;-61
2023/07/15 07:29:58;;;;;;;74.60;44.40;;;;;;;;;;5045340;28;20309;-61
2023/07/15 07:32:25;;;;;;;72.90;43.78;;;;;;;;;;5043303;28;20048;-63
2023/07/15 07:34:51;;;;;;;73.15;45.30;;;;;;;;;;5045787;28;20045;-63
2023/07/15 07:37:18;;;;;;;71.93;43.83;;;;;;;;;;5043224;28;20068;-62
2023/07/15 07:39:45;;;;;;;73.60;43.58;;;;;;;;;;5044243;28;20370;-61
2023/07/15 07:42:11;;;;;;;79.25;46.20;;;;;;;;;;5042489;28;20029;-62
2023/07/15 07:44:41;;;;;;;73.75;44.65;;;;;;;;;;5042547;28;20159;-63
2023/07/15 07:47:08;;;;;;;77.20;46.90;;;;;;;;;;5043688;28;20534;-61
2023/07/15 07:49:34;;;;;;;71.70;44.85;;;;;;;;;;5044740;28;20049;-62
2023/07/15 07:52:03;;;;;;;73.07;45.30;;;;;;;;;;5043366;28;20044;-64
2023/07/15 07:54:29;;;;;;;75.30;44.63;;;;;;;;;;5042466;28;20477;-64
2023/07/15 07:56:56;;;;;;;74.75;44.70;;;;;;;;;;5034596;28;20068;-61
2023/07/15 07:59:23;;;;;;;70.03;43.60;;;;;;;;;;5027938;28;20041;-66
2023/07/15 08:01:49;;;;;;;73.80;43.33;;;;;;;;;;5045559;28;20112;-60
2023/07/15 08:04:16;;;;;;;74.65;43.38;;;;;;;;;;5043647;28;20040;-60
2023/07/15 08:06:42;;;;;;;73.82;43.83;;;;;;;;;;5044022;28;20051;-61
2023/07/15 08:09:09;;;;;;;71.78;44.83;;;;;;;;;;5042271;28;20173;-63
2023/07/15 08:11:36;;;;;;;72.40;43.47;;;;;;;;;;5043584;28;20049;-61
2023/07/15 08:14:03;;;;;;;73.72;44.75;;;;;;;;;;5043132;28;20041;-62
2023/07/15 08:16:39;;;;;;;67.65;43.80;;;;;;;;;;5042295;28;20040;-62
2023/07/15 08:19:06;;;;;;;76.85;45.80;;;;;;;;;;5043096;28;20095;-60
2023/07/15 08:21:33;;;;;;;72.95;44.33;;;;;;;;;;5043000;28;20064;-62
2023/07/15 08:24:00;;;;;;;70.55;42.80;;;;;;;;;;5045758;28;20032;-62
2023/07/15 08:26:26;;;;;;;72.93;44.70;;;;;;;;;;5042280;28;20036;-63
2023/07/15 08:28:55;;;;;;;74.05;44.05;;;;;;;;;;5021959;28;20055;-60
2023/07/15 08:31:22;;;;;;;70.38;43.53;;;;;;;;;;5041787;28;20056;-67
2023/07/15 08:33:48;;;;;;;73.40;44.85;;;;;;;;;;5042416;28;20071;-63
2023/07/15 08:36:15;;;;;;;75.95;44.25;;;;;;;;;;5043372;28;20040;-60
2023/07/15 08:38:42;;;;;;;72.75;43.67;;;;;;;;;;5024181;28;20036;-65
2023/07/15 08:41:09;;;;;;;69.82;43.58;;;;;;;;;;5041463;28;20036;-69
2023/07/15 08:43:36;;;;;;;79.65;46.53;;;;;;;;;;5041692;28;20039;-61
2023/07/15 08:46:08;;;;;;;79.15;47.35;;;;;;;;;;5042459;28;20093;-63
2023/07/15 08:48:35;;;;;;;73.67;46.93;;;;;;;;;;5032781;28;20033;-63
2023/07/15 08:51:01;;;;;;;78.93;48.10;;;;;;;;;;5023271;28;20048;-63
2023/07/15 08:53:29;;;;;;;79.13;48.45;;;;;;;;;;5040618;28;20135;-63
2023/07/15 08:55:56;;;;;;;81.15;48.88;;;;;;;;;;5024784;28;20052;-63
2023/07/15 08:58:23;;;;;;;79.35;47.83;;;;;;;;;;5044484;28;20064;-65
2023/07/15 09:00:51;;;;;;;76.00;45.78;;;;;;;;;;5045536;28;20056;-63
2023/07/15 09:03:18;;;;;;;70.25;44.40;;;;;;;;;;5046061;28;20127;-65
2023/07/15 09:05:45;;;;;;;65.93;41.95;;;;;;;;;;5049366;28;20117;-67
2023/07/15 09:08:13;;;;;;;67.25;41.20;;;;;;;;;;5033985;28;20040;-63
2023/07/15 09:10:52;;;;;;;65.05;40.75;;;;;;;;;;5045922;28;20175;-62
2023/07/15 09:13:26;;;;;;;58.10;38.60;;;;;;;;;;5045718;28;20812;-63
2023/07/15 09:15:53;;;;;;;60.85;37.10;;;;;;;;;;5046393;28;20037;-63
2023/07/15 09:18:20;;;;;;;59.65;36.53;;;;;;;;;;5047153;28;20176;-63
2023/07/15 09:20:47;;;;;;;60.30;36.45;;;;;;;;;;5046107;28;20109;-64
2023/07/15 09:23:14;;;;;;;60.60;36.38;;;;;;;;;;5044192;28;20047;-63
2023/07/15 09:25:49;;;;;;;61.25;39.13;;;;;;;;;;5046296;28;20037;-62
2023/07/15 09:28:16;;;;;;;61.55;38.53;;;;;;;;;;5047967;28;20037;-62
2023/07/15 09:30:42;;;;;;;64.88;38.95;;;;;;;;;;5025809;28;20048;-63
2023/07/15 09:33:09;;;;;;;60.38;37.15;;;;;;;;;;5050093;28;20073;-63
2023/07/15 09:35:39;;;;;;;60.97;38.42;;;;;;;;;;5046983;28;20830;-61
2023/07/15 09:38:12;;;;;;;66.55;38.92;;;;;;;;;;5048363;28;20060;-64
2023/07/15 09:40:42;;;;;;;63.28;39.85;;;;;;;;;;5046713;28;20202;-64
2023/07/15 09:43:12;;;;;;;63.78;39.63;;;;;;;;;;5049350;28;20033;-62
2023/07/15 09:45:40;;;;;;;66.13;39.72;;;;;;;;;;5047872;28;20033;-62
2023/07/15 09:48:07;;;;;;;68.53;40.33;;;;;;;;;;5047582;28;20052;-63
2023/07/15 09:50:35;;;;;;;67.38;40.50;;;;;;;;;;5046216;28;20044;-63
2023/07/15 09:53:02;;;;;;;66.22;40.35;;;;;;;;;;5047915;28;20067;-63
2023/07/15 09:55:30;;;;;;;66.25;42.30;;;;;;;;;;5045627;28;20048;-63
2023/07/15 09:58:02;;;;;;;68.10;41.97;;;;;;;;;;5034331;28;20044;-62
2023/07/15 10:00:32;;;;;;;65.70;41.88;;;;;;;;;;5031774;28;20048;-62
2023/07/15 10:03:00;;;;;;;68.82;42.40;;;;;;;;;;5045953;28;20044;-64
2023/07/15 10:05:27;;;;;;;68.53;42.13;;;;;;;;;;5045699;28;20151;-64
2023/07/15 10:07:55;;;;;;;70.60;41.85;;;;;;;;;;5030652;28;20143;-64
2023/07/15 10:10:21;;;;;;;67.07;40.97;;;;;;;;;;5046666;28;20037;-63
2023/07/15 10:12:49;;;;;;;68.68;43.05;;;;;;;;;;5028944;28;20040;-62
2023/07/15 10:15:16;;;;;;;69.50;43.42;;;;;;;;;;5029241;28;20044;-61
2023/07/15 10:17:46;;;;;;;72.43;44.13;;;;;;;;;;5049442;28;20175;-62
2023/07/15 10:20:14;;;;;;;75.47;45.35;;;;;;;;;;5049186;28;20045;-62
2023/07/15 10:22:42;;;;;;;73.97;44.00;;;;;;;;;;5032554;28;20036;-62
2023/07/15 10:25:10;;;;;;;74.45;45.17;;;;;;;;;;5048283;28;21892;-62
2023/07/15 10:27:37;;;;;;;76.80;44.75;;;;;;;;;;5027138;28;20555;-62
2023/07/15 10:30:22;;;;;;;71.38;45.28;;;;;;;;;;5047117;28;20037;-63
2023/07/15 10:33:00;;;;;;;70.72;45.22;;;;;;;;;;5050618;28;20133;-63
2023/07/15 10:35:34;;;;;;;74.88;44.30;;;;;;;;;;5029587;28;20548;-63
2023/07/15 10:38:31;;;;;;;76.10;44.45;;;;;;;;;;5029481;28;20068;-63
2023/07/15 10:41:05;;;;;;;75.70;45.03;;;;;;;;;;5028378;28;20044;-64
2023/07/15 10:43:34;;;;;;;76.28;45.33;;;;;;;;;;5046177;28;20089;-62
2023/07/15 10:46:11;;;;;;;79.25;47.42;;;;;;;;;;5046429;28;20044;-61
2023/07/15 10:48:38;;;;;;;71.78;46.13;;;;;;;;;;5045701;28;20175;-62
2023/07/15 10:51:07;;;;;;;77.72;46.65;;;;;;;;;;5046814;28;20044;-62
2023/07/15 10:53:34;;;;;;;75.50;45.92;;;;;;;;;;5023687;28;20117;-62
2023/07/15 10:56:04;;;;;;;76.63;47.55;;;;;;;;;;5044905;28;20123;-62
2023/07/15 10:58:32;;;;;;;78.20;47.38;;;;;;;;;;5044367;28;20673;-63
2023/07/15 11:01:03;;;;;;;77.20;47.53;;;;;;;;;;5044174;28;20057;-62
2023/07/15 11:03:31;;;;;;;78.82;46.70;;;;;;;;;;5024447;28;20041;-62
2023/07/15 11:06:04;;;;;;;80.80;46.53;;;;;;;;;;5044987;28;20037;-63
2023/07/15 11:08:31;;;;;;;79.93;48.03;;;;;;;;;;5030346;28;20106;-62
2023/07/15 11:10:59;;;;;;;85.85;48.85;;;;;;;;;;5044756;28;20079;-63
2023/07/15 11:13:25;;;;;;;85.30;50.90;;;;;;;;;;5042905;28;20183;-62
2023/07/15 11:15:52;;;;;;;80.35;49.85;;;;;;;;;;5043843;28;20432;-63
2023/07/15 11:18:20;;;;;;;82.45;50.22;;;;;;;;;;5024193;28;20410;-62
2023/07/15 11:20:47;;;;;;;82.72;50.00;;;;;;;;;;5021055;28;20032;-62
2023/07/15 11:23:14;;;;;;;81.47;48.13;;;;;;;;;;5040672;28;20044;-62
2023/07/15 11:25:41;;;;;;;85.85;52.28;;;;;;;;;;5042897;28;20453;-62
2023/07/15 11:28:09;;;;;;;93.53;54.55;;;;;;;;;;5041512;28;20047;-62
2023/07/15 11:30:36;;;;;;;85.10;49.97;;;;;;;;;;5041077;28;20052;-61
2023/07/15 11:33:03;;;;;;;83.70;49.03;;;;;;;;;;5043999;28;20129;-62
2023/07/15 11:35:33;;;;;;;78.50;47.53;;;;;;;;;;5043622;28;20069;-62
2023/07/15 11:38:15;;;;;;;81.03;47.58;;;;;;;;;;5043517;28;20131;-62
2023/07/15 11:40:55;;;;;;;79.40;48.42;;;;;;;;;;5041215;28;20584;-62
2023/07/15 11:43:23;;;;;;;79.97;48.20;;;;;;;;;;5024286;28;20044;-62
2023/07/15 11:45:50;;;;;;;77.55;48.22;;;;;;;;;;5039703;28;20929;-62
2023/07/15 11:48:20;;;;;;;78.50;46.78;;;;;;;;;;5043082;28;20045;-62
2023/07/15 11:50:47;;;;;;;81.35;48.83;;;;;;;;;;5039708;28;21244;-63
2023/07/15 11:53:26;;;;;;;83.65;46.38;;;;;;;;;;5044958;28;22761;-63
2023/07/15 11:55:53;;;;;;;76.57;46.80;;;;;;;;;;5043369;28;20047;-62
2023/07/15 11:58:39;;;;;;;77.80;47.35;;;;;;;;;;5043874;28;20028;-64
2023/07/15 12:01:11;;;;;;;77.13;45.22;;;;;;;;;;5041470;28;20047;-62
2023/07/15 12:03:40;;;;;;;79.68;45.70;;;;;;;;;;5041666;28;20132;-62
2023/07/15 12:06:26;;;;;;;80.00;46.92;;;;;;;;;;5042859;28;20051;-61
2023/07/15 12:09:06;;;;;;;77.10;45.92;;;;;;;;;;5044843;28;20077;-63
2023/07/15 12:11:33;;;;;;;77.57;45.88;;;;;;;;;;5044764;28;20055;-63
2023/07/15 12:14:00;;;;;;;80.00;46.38;;;;;;;;;;5047804;28;20043;-62
2023/07/15 12:16:27;;;;;;;80.32;47.92;;;;;;;;;;5044836;28;20036;-63
2023/07/15 12:18:54;;;;;;;74.25;47.00;;;;;;;;;;5044329;28;20045;-62
2023/07/15 12:21:20;;;;;;;75.97;46.15;;;;;;;;;;5024402;28;20036;-61
2023/07/15 12:23:48;;;;;;;83.80;47.72;;;;;;;;;;5042853;28;20133;-63
2023/07/15 12:26:15;;;;;;;76.13;45.88;;;;;;;;;;5045160;28;21513;-62
2023/07/15 12:28:42;;;;;;;76.55;45.80;;;;;;;;;;5025884;28;20131;-62
2023/07/15 12:31:08;;;;;;;84.95;47.75;;;;;;;;;;5030552;28;20094;-63
2023/07/15 12:33:35;;;;;;;80.15;47.55;;;;;;;;;;5044365;28;20091;-63
2023/07/15 12:36:03;;;;;;;78.10;46.80;;;;;;;;;;5044674;28;20071;-63
2023/07/15 12:38:29;;;;;;;74.30;44.83;;;;;;;;;;5041042;28;20147;-63
2023/07/15 12:40:56;;;;;;;73.22;44.90;;;;;;;;;;5043802;28;20044;-64
2023/07/15 12:43:23;;;;;;;80.55;46.63;;;;;;;;;;5042136;28;20039;-65
2023/07/15 12:45:51;;;;;;;73.30;45.13;;;;;;;;;;5024090;28;20048;-63
2023/07/15 12:48:17;;;;;;;73.32;43.38;;;;;;;;;;5043007;28;20110;-64
2023/07/15 12:50:44;;;;;;;73.18;45.17;;;;;;;;;;5043365;28;20052;-65
2023/07/15 12:53:11;;;;;;;80.70;44.10;;;;;;;;;;5044390;28;20690;-62
2023/07/15 12:55:37;;;;;;;74.70;45.60;;;;;;;;;;5043371;28;20492;-65
2023/07/15 12:58:04;;;;;;;77.05;44.10;;;;;;;;;;5028164;28;20041;-62
2023/07/15 13:00:30;;;;;;;73.25;43.92;;;;;;;;;;5040147;28;20072;-63
2023/07/15 13:03:17;;;;;;;73.93;43.72;;;;;;;;;;5025725;28;20068;-65
2023/07/15 13:05:44;;;;;;;71.35;44.58;;;;;;;;;;5025187;28;20124;-64
2023/07/15 13:08:13;;;;;;;71.47;44.50;;;;;;;;;;5024988;28;20172;-65
2023/07/15 13:10:40;;;;;;;74.15;45.08;;;;;;;;;;5007448;28;20042;-65
2023/07/15 13:13:07;;;;;;;72.05;44.80;;;;;;;;;;5003291;28;20642;-60
2023/07/15 13:15:34;;;;;;;76.32;45.25;;;;;;;;;;5007702;28;20044;-60
2023/07/15 13:18:00;;;;;;;74.68;45.15;;;;;;;;;;5009063;28;20037;-60
2023/07/15 13:20:28;;;;;;;73.15;44.60;;;;;;;;;;5024851;28;20082;-60
2023/07/15 13:22:55;;;;;;;73.60;44.28;;;;;;;;;;5009956;28;20646;-61
2023/07/15 13:25:21;;;;;;;76.57;43.75;;;;;;;;;;5025863;28;20070;-61
2023/07/15 13:27:48;;;;;;;71.63;43.72;;;;;;;;;;5026702;28;20124;-60
2023/07/15 13:30:14;;;;;;;71.10;43.50;;;;;;;;;;5028171;28;20028;-61
2023/07/15 13:32:41;;;;;;;77.78;44.88;;;;;;;;;;5026622;28;20405;-61
2023/07/15 13:35:08;;;;;;;67.65;43.22;;;;;;;;;;5027488;28;20068;-61
2023/07/15 13:37:35;;;;;;;70.30;43.55;;;;;;;;;;5026966;28;20060;-60
2023/07/15 13:40:01;;;;;;;68.05;43.03;;;;;;;;;;5024894;28;20051;-61
2023/07/15 13:42:29;;;;;;;66.15;41.70;;;;;;;;;;5041961;28;20045;-62
2023/07/15 13:44:56;;;;;;;66.35;42.72;;;;;;;;;;5043102;28;20531;-62
2023/07/15 13:47:23;;;;;;;68.72;43.08;;;;;;;;;;5033318;28;20036;-61
2023/07/15 13:49:49;;;;;;;68.78;42.38;;;;;;;;;;5046013;28;20159;-60
2023/07/15 13:52:17;;;;;;;69.35;42.47;;;;;;;;;;5026914;28;20044;-60
2023/07/15 13:54:44;;;;;;;65.90;41.58;;;;;;;;;;5046391;28;20040;-62
2023/07/15 13:57:10;;;;;;;72.72;42.72;;;;;;;;;;5044633;28;20037;-61
2023/07/15 13:59:37;;;;;;;69.43;41.97;;;;;;;;;;5044661;28;20036;-62
2023/07/15 14:02:04;;;;;;;66.40;40.67;;;;;;;;;;5044487;28;20053;-63
2023/07/15 14:04:31;;;;;;;66.43;41.65;;;;;;;;;;5044791;28;20055;-63
2023/07/15 14:06:58;;;;;;;69.07;42.28;;;;;;;;;;5046662;28;20040;-63
2023/07/15 14:09:25;;;;;;;68.85;40.75;;;;;;;;;;5045103;28;20059;-62
2023/07/15 14:11:51;;;;;;;70.35;42.83;;;;;;;;;;5032215;28;20117;-63
2023/07/15 14:14:18;;;;;;;67.55;41.83;;;;;;;;;;5025129;28;20136;-63
2023/07/15 14:16:45;;;;;;;66.45;42.20;;;;;;;;;;5024873;28;20075;-61
2023/07/15 14:19:11;;;;;;;69.72;42.00;;;;;;;;;;5045792;28;20052;-61
2023/07/15 14:21:38;;;;;;;66.18;41.78;;;;;;;;;;5023979;28;20122;-62